createdAt,value
2023-03-11T00:02:44.855Z,8.50
2023-03-11T00:05:34.644Z,8.50
2023-03-11T00:08:24.946Z,8.50
2023-03-11T00:11:12.652Z,8.50
2023-03-11T00:14:01.559Z,8.50
2023-03-11T00:16:49.250Z,8.50
2023-03-11T00:19:36.820Z,8.50
2023-03-11T00:22:24.422Z,8.50
2023-03-11T00:25:12.529Z,8.50
2023-03-11T00:28:00.928Z,8.50
2023-03-11T00:30:50.059Z,8.50
2023-03-11T00:33:37.525Z,8.50
2023-03-11T00:36:31.533Z,8.50
2023-03-11T00:39:19.250Z,8.50
2023-03-11T00:42:07.997Z,8.40
2023-03-11T00:44:55.539Z,8.40
2023-03-11T00:47:45.077Z,8.40
2023-03-11T00:50:34.558Z,8.30
2023-03-11T00:53:22.342Z,8.30
2023-03-11T00:56:10.684Z,8.40
2023-03-11T00:58:59.551Z,8.40
2023-03-11T01:01:47.108Z,8.40
2023-03-11T01:04:36.568Z,8.40
2023-03-11T01:07:24.810Z,8.50
2023-03-11T01:10:13.641Z,8.50
2023-03-11T01:13:01.461Z,8.60
2023-03-11T01:15:48.967Z,8.60
2023-03-11T01:18:36.492Z,8.70
2023-03-11T01:21:25.548Z,8.60
2023-03-11T01:24:13.061Z,8.40
2023-03-11T01:27:00.550Z,8.20
2023-03-11T01:29:48.118Z,8.00
2023-03-11T01:32:36.003Z,7.90
2023-03-11T01:35:25.830Z,7.70
2023-03-11T01:38:17.155Z,7.60
2023-03-11T01:41:05.252Z,7.50
2023-03-11T01:43:55.713Z,7.50
2023-03-11T01:47:24.524Z,7.40
2023-03-11T01:50:14.529Z,7.30
2023-03-11T01:53:03.055Z,7.30
2023-03-11T01:55:52.485Z,7.30
2023-03-11T01:58:45.828Z,7.30
2023-03-11T02:01:35.028Z,7.30
2023-03-11T02:04:23.170Z,7.20
2023-03-11T02:07:12.402Z,7.20
2023-03-11T02:10:00.415Z,7.20
2023-03-11T02:12:53.303Z,7.10
2023-03-11T02:15:43.394Z,7.10
2023-03-11T02:18:31.208Z,7.00
2023-03-11T02:21:26.451Z,7.00
2023-03-11T02:24:18.503Z,7.00
2023-03-11T02:27:10.351Z,7.00
2023-03-11T02:30:00.894Z,6.90
2023-03-11T02:32:49.777Z,6.90
2023-03-11T02:35:38.707Z,6.90
2023-03-11T02:38:26.288Z,6.90
2023-03-11T02:41:14.895Z,6.80
2023-03-11T02:44:08.231Z,6.80
2023-03-11T02:46:56.071Z,6.80
2023-03-11T02:49:44.027Z,6.70
2023-03-11T02:52:34.738Z,6.70
2023-03-11T02:55:23.282Z,6.70
2023-03-11T02:58:10.881Z,6.60
2023-03-11T03:00:59.914Z,6.60
2023-03-11T03:03:47.732Z,6.60
2023-03-11T03:06:35.050Z,6.60
2023-03-11T03:09:22.851Z,6.60
2023-03-11T03:12:10.801Z,6.50
2023-03-11T03:14:58.957Z,6.50
2023-03-11T03:17:48.192Z,6.50
2023-03-11T03:20:35.823Z,6.40
2023-03-11T03:23:23.680Z,6.10
2023-03-11T03:26:14.852Z,5.80
2023-03-11T03:29:05.583Z,5.50
2023-03-11T03:31:53.238Z,5.20
2023-03-11T03:34:42.628Z,5.00
2023-03-11T03:37:33.692Z,4.90
2023-03-11T03:40:21.399Z,4.70
2023-03-11T03:43:09.506Z,4.60
2023-03-11T03:46:00.022Z,4.50
2023-03-11T03:48:51.394Z,4.40
2023-03-11T03:51:40.104Z,4.30
2023-03-11T03:54:32.743Z,4.20
2023-03-11T03:57:20.776Z,4.20
2023-03-11T04:00:11.833Z,4.20
2023-03-11T04:03:01.957Z,4.20
2023-03-11T04:06:06.809Z,4.10
2023-03-11T04:08:55.921Z,4.10
2023-03-11T04:11:48.839Z,4.10
2023-03-11T04:14:38.072Z,4.10
2023-03-11T04:17:26.227Z,4.00
2023-03-11T04:20:16.346Z,3.90
2023-03-11T04:23:07.109Z,3.80
2023-03-11T04:25:56.081Z,3.80
2023-03-11T04:28:43.861Z,3.70
2023-03-11T04:31:31.468Z,3.70
2023-03-11T04:34:21.631Z,3.60
2023-03-11T04:37:10.472Z,3.60
2023-03-11T04:39:58.261Z,3.60
2023-03-11T04:42:47.393Z,3.50
2023-03-11T04:45:36.625Z,3.30
2023-03-11T04:48:27.219Z,3.20
2023-03-11T04:51:15.757Z,3.20
2023-03-11T04:54:03.756Z,3.10
2023-03-11T04:56:52.003Z,3.00
2023-03-11T04:59:41.684Z,3.00
2023-03-11T05:02:29.972Z,3.00
2023-03-11T05:05:21.001Z,2.90
2023-03-11T05:08:08.681Z,2.80
2023-03-11T05:10:56.393Z,2.70
2023-03-11T05:13:44.011Z,2.60
2023-03-11T05:16:33.714Z,2.50
2023-03-11T05:19:35.127Z,2.50
2023-03-11T05:22:31.873Z,2.40
2023-03-11T05:25:20.091Z,2.30
2023-03-11T05:28:08.172Z,2.20
2023-03-11T05:31:01.021Z,2.20
2023-03-11T05:33:52.539Z,2.20
2023-03-11T05:36:41.140Z,2.10
2023-03-11T05:39:28.676Z,2.10
2023-03-11T05:42:16.464Z,2.20
2023-03-11T05:45:06.501Z,2.20
2023-03-11T05:47:55.208Z,2.10
2023-03-11T05:50:44.036Z,2.10
2023-03-11T05:53:32.281Z,2.10
2023-03-11T05:56:22.008Z,2.10
2023-03-11T05:59:11.110Z,2.20
2023-03-11T06:01:59.920Z,2.10
2023-03-11T06:04:48.254Z,2.00
2023-03-11T06:07:38.216Z,2.00
2023-03-11T06:10:27.394Z,2.00
2023-03-11T06:13:15.372Z,1.90
2023-03-11T06:16:12.044Z,1.90
2023-03-11T06:19:00.797Z,1.90
2023-03-11T06:21:51.665Z,1.90
2023-03-11T06:24:40.529Z,1.90
2023-03-11T06:27:28.076Z,1.90
2023-03-11T06:30:16.892Z,1.80
2023-03-11T06:33:14.544Z,1.80
2023-03-11T06:36:04.133Z,1.80
2023-03-11T06:38:53.752Z,1.80
2023-03-11T06:41:44.528Z,1.80
2023-03-11T06:44:33.382Z,1.80
2023-03-11T06:47:20.891Z,1.80
2023-03-11T06:50:10.152Z,1.80
2023-03-11T06:52:58.261Z,1.80
2023-03-11T06:55:45.975Z,1.80
2023-03-11T06:58:36.263Z,1.80
2023-03-11T07:01:25.992Z,1.80
2023-03-11T07:04:15.557Z,1.80
2023-03-11T07:07:04.030Z,1.80
2023-03-11T07:09:51.354Z,1.80
2023-03-11T07:12:38.918Z,1.90
2023-03-11T07:15:28.221Z,1.90
2023-03-11T07:18:16.440Z,1.90
2023-03-11T07:21:07.787Z,1.90
2023-03-11T07:23:55.862Z,1.90
2023-03-11T07:26:44.557Z,2.00
2023-03-11T07:29:32.331Z,2.00
2023-03-11T07:32:21.421Z,2.00
2023-03-11T07:35:10.069Z,2.00
2023-03-11T07:37:57.530Z,2.00
2023-03-11T07:40:45.444Z,2.00
2023-03-11T07:43:34.107Z,2.00
2023-03-11T07:46:22.837Z,1.90
2023-03-11T07:49:12.621Z,1.90
2023-03-11T07:52:00.236Z,1.90
2023-03-11T07:54:47.907Z,1.80
2023-03-11T07:57:35.488Z,1.80
2023-03-11T08:00:23.451Z,1.80
2023-03-11T08:03:11.204Z,1.80
2023-03-11T08:06:00.140Z,1.80
2023-03-11T08:08:48.854Z,1.90
2023-03-11T08:11:37.155Z,1.90
2023-03-11T08:14:24.450Z,1.90
2023-03-11T08:17:11.945Z,2.00
2023-03-11T08:19:59.525Z,2.10
2023-03-11T08:22:57.648Z,2.20
2023-03-11T08:25:46.401Z,2.20
2023-03-11T08:28:33.823Z,2.20
2023-03-11T08:31:24.325Z,2.20
2023-03-11T08:34:12.663Z,2.20
2023-03-11T08:37:00.975Z,2.10
2023-03-11T08:39:49.981Z,2.20
2023-03-11T08:42:37.732Z,2.10
2023-03-11T08:45:28.297Z,2.00
2023-03-11T08:48:15.925Z,2.00
2023-03-11T08:51:03.523Z,1.90
2023-03-11T08:53:52.192Z,1.90
2023-03-11T08:56:41.055Z,1.90
2023-03-11T08:59:28.564Z,1.90
2023-03-11T09:02:16.036Z,1.90
2023-03-11T09:05:03.745Z,2.00
2023-03-11T09:07:51.584Z,2.00
2023-03-11T09:10:39.057Z,2.10
2023-03-11T09:13:27.940Z,2.10
2023-03-11T09:16:17.061Z,2.20
2023-03-11T09:19:07.415Z,2.20
2023-03-11T09:21:55.230Z,2.20
2023-03-11T09:24:42.838Z,2.10
2023-03-11T09:27:30.286Z,2.20
2023-03-11T09:30:19.729Z,2.20
2023-03-11T09:33:07.184Z,2.10
2023-03-11T09:35:54.858Z,2.10
2023-03-11T09:38:42.552Z,2.20
2023-03-11T09:41:47.896Z,2.20
2023-03-11T09:44:46.304Z,2.20
2023-03-11T09:47:44.248Z,2.20
2023-03-11T09:50:33.095Z,2.30
2023-03-11T09:53:30.366Z,2.30
2023-03-11T09:56:21.309Z,2.40
2023-03-11T09:59:16.182Z,2.50
2023-03-11T10:02:04.631Z,2.40
2023-03-11T10:04:59.490Z,2.50
2023-03-11T10:07:53.700Z,2.50
2023-03-11T10:10:49.088Z,2.60
2023-03-11T10:13:41.381Z,2.70
2023-03-11T10:16:36.663Z,2.80
2023-03-11T10:19:36.770Z,2.80
2023-03-11T10:22:33.172Z,2.70
2023-03-11T10:25:25.848Z,2.70
2023-03-11T10:28:15.909Z,2.70
2023-03-11T10:31:08.483Z,2.80
2023-03-11T10:34:01.240Z,2.90
2023-03-11T10:36:57.236Z,2.80
2023-03-11T10:39:48.465Z,2.80
2023-03-11T10:42:36.781Z,2.90
2023-03-11T10:45:25.339Z,3.00
2023-03-11T10:48:15.907Z,3.00
2023-03-11T10:51:05.401Z,3.10
2023-03-11T10:53:55.207Z,3.10
2023-03-11T10:56:44.325Z,3.10
2023-03-11T10:59:34.444Z,3.00
2023-03-11T11:02:28.416Z,2.90
2023-03-11T11:05:30.114Z,3.00
2023-03-11T11:08:21.010Z,3.10
2023-03-11T11:11:22.944Z,3.20
2023-03-11T11:14:11.837Z,3.30
2023-03-11T11:16:59.551Z,3.30
2023-03-11T11:19:48.995Z,3.50
2023-03-11T11:22:37.180Z,3.50
2023-03-11T11:25:44.735Z,3.50
2023-03-11T11:28:33.759Z,3.60
2023-03-11T11:31:25.537Z,3.70
2023-03-11T11:34:37.030Z,3.90
2023-03-11T11:37:26.938Z,3.90
2023-03-11T11:40:25.558Z,3.80
2023-03-11T11:43:18.664Z,3.80
2023-03-11T11:46:12.610Z,4.00
2023-03-11T11:49:09.764Z,4.10
2023-03-11T11:52:04.144Z,4.30
2023-03-11T11:54:55.393Z,4.40
2023-03-11T11:57:42.914Z,4.50
2023-03-11T12:00:38.890Z,4.40
2023-03-11T12:03:53.561Z,4.30
2023-03-11T12:06:49.051Z,4.10
2023-03-11T12:09:42.788Z,3.90
2023-03-11T12:12:37.038Z,3.80
2023-03-11T12:15:29.338Z,3.70
2023-03-11T12:18:23.857Z,3.60
2023-03-11T12:21:27.547Z,3.50
2023-03-11T12:24:30.529Z,3.40
2023-03-11T12:27:23.668Z,3.10
2023-03-11T12:30:17.448Z,3.00
2023-03-11T12:33:07.158Z,3.00
2023-03-11T12:35:56.656Z,2.90
2023-03-11T12:38:48.325Z,3.00
2023-03-11T12:41:41.260Z,3.40
2023-03-11T12:44:30.259Z,3.80
2023-03-11T12:47:28.975Z,4.10
2023-03-11T12:50:39.634Z,4.10
2023-03-11T12:53:44.338Z,4.20
2023-03-11T12:56:37.881Z,4.00
2023-03-11T13:00:10.871Z,3.80
2023-03-11T13:03:43.060Z,3.70
2023-03-11T13:06:57.486Z,3.70
2023-03-11T13:09:44.923Z,3.80
2023-03-11T13:12:41.846Z,3.80
2023-03-11T13:15:35.848Z,3.60
2023-03-11T13:18:27.062Z,3.40
2023-03-11T13:21:41.311Z,3.20
2023-03-11T13:24:52.311Z,3.20
2023-03-11T13:27:45.489Z,3.30
2023-03-11T13:30:36.547Z,3.40
2023-03-11T13:33:43.764Z,3.50
2023-03-11T13:36:45.019Z,3.40
2023-03-11T13:39:55.092Z,3.50
2023-03-11T13:42:46.449Z,3.40
2023-03-11T13:45:36.316Z,3.30
2023-03-11T13:48:30.888Z,3.20
2023-03-11T13:51:23.009Z,3.10
2023-03-11T13:54:27.231Z,3.10
2023-03-11T13:57:27.830Z,3.00
2023-03-11T14:00:17.901Z,3.00
2023-03-11T14:03:12.704Z,2.90
2023-03-11T14:06:03.699Z,2.90
2023-03-11T14:08:55.319Z,2.80
2023-03-11T14:11:47.782Z,2.70
2023-03-11T14:14:50.098Z,2.70
2023-03-11T14:17:37.553Z,2.70
2023-03-11T14:20:27.294Z,2.70
2023-03-11T14:23:20.588Z,2.60
2023-03-11T14:26:10.149Z,2.60
2023-03-11T14:29:00.341Z,2.70
2023-03-11T14:31:49.180Z,2.60
2023-03-11T14:34:41.889Z,2.60
2023-03-11T14:37:34.205Z,2.60
2023-03-11T14:40:27.185Z,2.60
2023-03-11T14:43:14.506Z,2.60
2023-03-11T14:46:03.486Z,2.50
2023-03-11T14:48:51.334Z,2.50
2023-03-11T14:51:39.267Z,2.60
2023-03-11T14:54:30.119Z,2.60
2023-03-11T14:57:25.652Z,2.60
2023-03-11T15:00:17.799Z,2.70
2023-03-11T15:03:17.237Z,2.70
2023-03-11T15:06:08.352Z,2.70
2023-03-11T15:09:00.037Z,2.70
2023-03-11T15:11:49.461Z,2.80
2023-03-11T15:14:49.916Z,2.80
2023-03-11T15:17:43.822Z,2.80
2023-03-11T15:20:34.672Z,2.70
2023-03-11T15:23:24.151Z,2.70
2023-03-11T15:26:20.612Z,2.70
2023-03-11T15:29:16.476Z,2.60
2023-03-11T15:32:27.189Z,2.70
2023-03-11T15:35:18.572Z,2.60
2023-03-11T15:38:21.081Z,2.60
2023-03-11T15:41:12.636Z,2.60
2023-03-11T15:44:03.133Z,2.70
2023-03-11T15:46:51.017Z,2.70
2023-03-11T15:49:39.601Z,2.70
2023-03-11T15:52:27.573Z,2.70
2023-03-11T15:55:15.140Z,2.70
2023-03-11T15:58:07.133Z,2.70
2023-03-11T16:00:57.234Z,2.70
2023-03-11T16:03:44.965Z,2.70
2023-03-11T16:06:34.102Z,2.60
2023-03-11T16:09:22.348Z,2.60
2023-03-11T16:12:19.129Z,2.50
2023-03-11T16:15:07.613Z,2.50
2023-03-11T16:17:55.729Z,2.50
2023-03-11T16:20:46.139Z,2.40
2023-03-11T16:23:50.677Z,2.40
2023-03-11T16:26:39.118Z,2.40
2023-03-11T16:29:27.093Z,2.40
2023-03-11T16:32:14.997Z,2.30
2023-03-11T16:35:02.637Z,2.30
2023-03-11T16:37:50.706Z,2.40
2023-03-11T16:40:39.922Z,2.40
2023-03-11T16:43:27.928Z,2.30
2023-03-11T16:46:15.544Z,2.30
2023-03-11T16:49:02.928Z,2.30
2023-03-11T16:51:50.322Z,2.30
2023-03-11T16:54:37.945Z,2.30
2023-03-11T16:57:26.927Z,2.30
2023-03-11T17:00:15.722Z,2.20
2023-03-11T17:03:03.818Z,2.20
2023-03-11T17:05:51.643Z,2.20
2023-03-11T17:08:39.362Z,2.10
2023-03-11T17:11:29.598Z,2.20
2023-03-11T17:14:18.350Z,2.20
2023-03-11T17:17:06.122Z,2.10
2023-03-11T17:19:53.695Z,2.10
2023-03-11T17:22:41.172Z,2.10
2023-03-11T17:25:28.673Z,2.00
2023-03-11T17:28:16.383Z,2.00
2023-03-11T17:31:07.241Z,2.00
2023-03-11T17:33:55.178Z,2.00
2023-03-11T17:36:42.700Z,2.00
2023-03-11T17:39:30.127Z,2.10
2023-03-11T17:42:17.934Z,2.10
2023-03-11T17:45:06.690Z,2.00
2023-03-11T17:47:55.489Z,2.00
2023-03-11T17:50:43.159Z,2.00
2023-03-11T17:53:30.843Z,1.90
2023-03-11T17:56:20.401Z,1.90
2023-03-11T17:59:08.045Z,1.80
2023-03-11T18:01:55.849Z,1.70
2023-03-11T18:04:46.081Z,1.70
2023-03-11T18:07:33.534Z,1.60
2023-03-11T18:10:22.171Z,1.60
2023-03-11T18:13:10.092Z,1.50
2023-03-11T18:15:59.218Z,1.40
2023-03-11T18:18:47.760Z,1.30
2023-03-11T18:21:36.570Z,1.20
2023-03-11T18:24:24.348Z,1.10
2023-03-11T18:27:11.627Z,1.10
2023-03-11T18:30:00.245Z,1.10
2023-03-11T18:32:48.081Z,1.00
2023-03-11T18:35:35.527Z,1.00
2023-03-11T18:38:24.586Z,0.90
2023-03-11T18:41:12.447Z,0.80
2023-03-11T18:44:00.466Z,0.70
2023-03-11T18:46:48.211Z,0.70
2023-03-11T18:49:36.080Z,0.60
2023-03-11T18:52:23.783Z,0.50
2023-03-11T18:55:13.093Z,0.50
2023-03-11T18:58:00.407Z,0.50
2023-03-11T19:00:47.957Z,0.50
2023-03-11T19:03:35.998Z,0.50
2023-03-11T19:06:25.008Z,0.50
2023-03-11T19:09:12.961Z,0.50
2023-03-11T19:12:02.158Z,0.50
2023-03-11T19:14:49.806Z,0.60
2023-03-11T19:17:37.558Z,0.60
2023-03-11T19:20:27.112Z,0.60
2023-03-11T19:23:14.598Z,0.50
2023-03-11T19:26:03.336Z,0.60
2023-03-11T19:28:52.466Z,0.60
2023-03-11T19:31:40.108Z,0.60
2023-03-11T19:34:28.951Z,0.60
2023-03-11T19:37:17.248Z,0.50
2023-03-11T19:40:05.866Z,0.50
2023-03-11T19:42:53.497Z,0.50
2023-03-11T19:45:42.741Z,0.40
2023-03-11T19:48:30.176Z,0.40
2023-03-11T19:51:19.473Z,0.30
2023-03-11T19:54:07.174Z,0.30
2023-03-11T19:56:54.789Z,0.30
2023-03-11T19:59:42.384Z,0.20
2023-03-11T20:02:31.121Z,0.30
2023-03-11T20:05:19.030Z,0.40
2023-03-11T20:08:07.677Z,0.30
2023-03-11T20:10:55.543Z,0.30
2023-03-11T20:13:44.198Z,0.30
2023-03-11T20:16:31.867Z,0.30
2023-03-11T20:19:20.816Z,0.20
2023-03-11T20:22:08.668Z,0.20
2023-03-11T20:24:56.424Z,0.20
2023-03-11T20:27:43.985Z,0.20
2023-03-11T20:30:31.474Z,0.10
2023-03-11T20:33:19.135Z,0.00
2023-03-11T20:36:09.883Z,0.00
2023-03-11T20:38:58.012Z,0.00
2023-03-11T20:41:45.402Z,0.00
2023-03-11T20:44:32.904Z,0.00
2023-03-11T20:47:20.720Z,-0.10
2023-03-11T20:50:09.182Z,-0.20
2023-03-11T20:52:58.195Z,-0.20
2023-03-11T20:55:46.419Z,-0.20
2023-03-11T20:58:34.327Z,-0.30
2023-03-11T21:01:28.214Z,-0.30
2023-03-11T21:04:16.812Z,-0.40
2023-03-11T21:07:04.337Z,-0.40
2023-03-11T21:09:54.707Z,-0.50
2023-03-11T21:12:42.367Z,-0.40
2023-03-11T21:15:30.226Z,-0.40
2023-03-11T21:18:17.908Z,-0.40
2023-03-11T21:21:08.474Z,-0.50
2023-03-11T21:23:55.975Z,-0.50
2023-03-11T21:26:45.273Z,-0.50
2023-03-11T21:29:33.089Z,-0.40
2023-03-11T21:32:21.177Z,-0.40
2023-03-11T21:35:09.423Z,-0.50
2023-03-11T21:37:57.415Z,-0.50
2023-03-11T21:40:45.329Z,-0.60
2023-03-11T21:43:34.045Z,-0.60
2023-03-11T21:46:23.740Z,-0.70
2023-03-11T21:49:11.331Z,-0.70
2023-03-11T21:52:02.020Z,-0.80
2023-03-11T21:54:49.984Z,-0.80
2023-03-11T21:57:37.339Z,-0.80
2023-03-11T22:00:26.270Z,-0.70
2023-03-11T22:03:14.420Z,-0.70
2023-03-11T22:06:03.469Z,-0.70
2023-03-11T22:08:51.044Z,-0.70
2023-03-11T22:11:38.567Z,-0.80
2023-03-11T22:14:26.775Z,-0.70
2023-03-11T22:17:16.156Z,-0.80
2023-03-11T22:20:05.616Z,-0.80
2023-03-11T22:22:54.299Z,-0.80
2023-03-11T22:25:41.732Z,-0.70
2023-03-11T22:28:29.628Z,-0.70
2023-03-11T22:31:19.106Z,-0.60
2023-03-11T22:34:08.164Z,-0.60
2023-03-11T22:36:55.724Z,-0.60
2023-03-11T22:39:43.480Z,-0.50
2023-03-11T22:42:30.754Z,-0.50
2023-03-11T22:45:22.186Z,-0.60
2023-03-11T22:48:09.955Z,-0.60
2023-03-11T22:50:59.140Z,-0.60
2023-03-11T22:53:46.751Z,-0.60
2023-03-11T22:56:34.495Z,-0.60
2023-03-11T22:59:22.182Z,-0.70
2023-03-11T23:02:09.664Z,-0.60
2023-03-11T23:04:57.358Z,-0.70
2023-03-11T23:07:46.080Z,-0.80
2023-03-11T23:10:33.893Z,-0.80
2023-03-11T23:13:21.148Z,-0.90
2023-03-11T23:16:10.381Z,-1.00
2023-03-11T23:18:58.327Z,-1.10
2023-03-11T23:21:45.985Z,-1.00
2023-03-11T23:24:35.002Z,-1.10
2023-03-11T23:27:23.252Z,-1.10
2023-03-11T23:30:12.822Z,-1.10
2023-03-11T23:33:02.889Z,-1.10
2023-03-11T23:35:50.410Z,-1.10
2023-03-11T23:38:38.239Z,-1.10
2023-03-11T23:41:30.476Z,-1.00
2023-03-11T23:44:18.124Z,-1.00
2023-03-11T23:47:05.925Z,-0.90
2023-03-11T23:49:53.490Z,-0.80
2023-03-11T23:52:41.111Z,-0.90
2023-03-11T23:55:28.465Z,-0.90
2023-03-11T23:58:18.035Z,-1.00
